Terminal Aerodrome Forecast
Issued by NWS Sterling, VA

Current Version | Previous Version | Graphics & Text | Print | Product List | Glossary On
Versions: 1 2 3 4 5 6 7 8 9 10 11 12 13 14 15 16 17 18 19 20 21 22 23 24 25 26 27 28
000
FTUS41 KLWX 271738
TAFDCA
TAF
KDCA 271738Z 2718/2818 17006KT P6SM VCTS SCT030CB SCT100
     FM280400 16005KT P6SM SCT050 BKN060
     FM280500 17005KT P6SM FEW050 SCT250
     FM280900 00000KT 5SM BR FEW050 SCT250
     FM281300 00000KT P6SM SCT250
     FM281700 05005KT P6SM SCT050=

USA.gov is the U.S. government's official web portal to all federal, state and local government web resources and services.